Main page
METAR-TAF:

METAR-TAF

Airports :

Niederstetten Air Base

Niederstetten, Germany

latitude: 49-24N, longitude: 009-58E, elevation: 468 m

Current weather observation

The report was made 1 hour and 0 minutes ago, at 00:20 UTC
Wind 9 kt from the East
Temperature 0°C
Humidity 100%
Pressure 998 hPa
Visibility 10 km or more
Broken clouds at a height of 14000 ft
Broken clouds at a height of 19000 ft

METAR: ETHN 150020Z 08009KT 9999 BKN140 BKN190 00/M00 Q0998 BLU

Time: 02:20 (01:20 UTC)

Forecast

The report was made 9 hours and 26 minutes ago, at 15:54 UTC
Forecast valid from 14 at 15 UTC to 14 at 24 UTC
Wind 10 kt from the East/Southeast with gusts up to 20 kt
Visibility: 1600 m
Few clouds at a height of 9000 ft
Broken clouds at a height of 21000 ft

TAF: ETHN 141554Z 1415/1424 11010G20KT 9999 NSW FEW090 BKN210 CANCEL 1600

Weather observations and forecasts of more than 4000 airports (METAR and TAF reports).

The available stations are represented by yellow and red dots on the map.

Hover mouse over dot to see the name of the station.

Then click to see weather observations and forecasts.

To change the map : click on the green buttons with a black cross to zoom in, on the green button with a dash to zoom out, or on the green arrows for adjacent maps.


METAR-TAF: